Time;durP1;ratioP1;P1;durP2;ratioP2;P2;SDS_P1;SDS_P2;PMS_P1;PMS_P2;Temp;Humidity;BMP_temperature;BMP_pressure;BME280_temperature;BME280_humidity;BME280_pressure;Samples;Min_cycle;Max_cycle;Signal;HPM_P1;HPM_P2
2023/05/12 00:00:21;;;;;;;9.40;7.53;;;;;;;14.73;95.54;101513.47;5036737;28;20034;-66
2023/05/12 00:02:46;;;;;;;12.02;7.07;;;;;;;14.66;95.43;101506.34;5036433;28;20074;-66
2023/05/12 00:05:12;;;;;;;10.82;6.32;;;;;;;14.57;93.85;101512.53;5036340;28;20029;-67
2023/05/12 00:07:37;;;;;;;8.23;6.20;;;;;;;14.47;93.50;101511.56;5018921;28;20108;-66
2023/05/12 00:10:03;;;;;;;9.13;5.68;;;;;;;14.44;93.34;101508.88;5037336;28;20037;-67
2023/05/12 00:12:28;;;;;;;8.32;5.70;;;;;;;14.37;93.09;101508.81;5037429;28;20484;-66
2023/05/12 00:14:54;;;;;;;8.98;5.85;;;;;;;14.32;92.72;101508.81;5036672;28;20466;-67
2023/05/12 00:17:19;;;;;;;7.78;5.60;;;;;;;14.25;92.98;101510.50;5036493;28;20533;-66
2023/05/12 00:19:45;;;;;;;12.32;5.80;;;;;;;14.29;92.93;101508.78;5036253;28;20474;-66
2023/05/12 00:22:11;;;;;;;7.53;5.65;;;;;;;14.25;93.33;101507.84;5036334;28;20029;-66
2023/05/12 00:24:37;;;;;;;7.03;5.70;;;;;;;14.20;93.81;101508.72;5036405;28;20116;-67
2023/05/12 00:27:03;;;;;;;11.15;5.65;;;;;;;14.21;93.94;101506.06;5036225;28;20017;-66
2023/05/12 00:29:28;;;;;;;7.78;5.60;;;;;;;14.28;93.99;101504.34;5036266;28;20028;-66
2023/05/12 00:31:54;;;;;;;7.35;5.50;;;;;;;14.29;93.82;101506.09;5035935;28;20029;-66
2023/05/12 00:34:20;;;;;;;8.00;5.22;;;;;;;14.30;93.31;101502.56;5035876;28;20060;-66
2023/05/12 00:36:45;;;;;;;7.10;5.28;;;;;;;14.29;93.50;101506.09;5036133;28;20505;-66
2023/05/12 00:39:11;;;;;;;8.82;5.88;;;;;;;14.30;93.86;101502.56;5035656;28;20022;-66
2023/05/12 00:41:36;;;;;;;7.72;5.43;;;;;;;14.26;93.89;101498.09;5035842;28;20116;-66
2023/05/12 00:44:01;;;;;;;8.00;5.35;;;;;;;14.27;94.00;101503.47;5035921;28;20493;-67
2023/05/12 00:46:27;;;;;;;7.50;5.32;;;;;;;14.23;93.84;101500.78;5035504;28;20041;-68
2023/05/12 00:48:52;;;;;;;8.27;5.85;;;;;;;14.10;93.83;101501.56;5035668;28;20436;-67
2023/05/12 00:51:18;;;;;;;7.68;5.70;;;;;;;13.97;93.94;101493.50;5035519;28;20029;-67
2023/05/12 00:53:44;;;;;;;9.35;5.95;;;;;;;13.95;94.58;101492.59;5035432;28;20467;-67
2023/05/12 00:56:10;;;;;;;8.25;5.97;;;;;;;13.96;94.73;101491.75;5035457;28;20158;-67
2023/05/12 00:58:36;;;;;;;8.70;6.70;;;;;;;13.94;94.41;101487.28;5035591;28;20124;-67
2023/05/12 01:01:01;;;;;;;8.15;6.43;;;;;;;13.94;94.44;101493.47;5035396;28;20497;-67
2023/05/12 01:03:27;;;;;;;7.15;6.13;;;;;;;13.93;94.52;101494.38;5035287;28;20030;-67
2023/05/12 01:06:21;;;;;;;11.35;6.50;;;;;;;13.93;94.65;101490.81;5034529;28;20033;-67
2023/05/12 01:08:46;;;;;;;9.57;6.25;;;;;;;13.96;94.62;101483.78;5035485;28;20100;-67
2023/05/12 01:11:12;;;;;;;10.95;6.40;;;;;;;13.99;94.64;101486.44;5017502;28;20065;-67
2023/05/12 01:13:38;;;;;;;7.80;6.40;;;;;;;13.92;94.36;101489.94;5035266;28;20018;-67
2023/05/12 01:16:07;;;;;;;8.23;6.13;;;;;;;13.89;94.57;101479.28;5035362;28;20395;-67
2023/05/12 01:18:35;;;;;;;8.35;6.63;;;;;;;13.89;94.70;101484.59;5035111;28;20030;-68
2023/05/12 01:21:02;;;;;;;10.07;6.97;;;;;;;13.87;94.61;101474.81;5034909;28;20029;-67
2023/05/12 01:23:45;;;;;;;8.30;6.53;;;;;;;13.85;95.29;101474.81;5035118;28;20084;-67
2023/05/12 01:26:11;;;;;;;9.75;6.90;;;;;;;13.83;95.27;101473.00;5035066;28;20045;-67
2023/05/12 01:28:39;;;;;;;8.52;6.85;;;;;;;13.84;95.32;101475.72;5035145;28;20104;-67
2023/05/12 01:31:07;;;;;;;7.25;6.32;;;;;;;13.89;95.59;101478.41;5034990;28;20052;-67
2023/05/12 01:33:34;;;;;;;9.98;6.65;;;;;;;13.84;96.23;101475.72;5034722;28;20026;-67
2023/05/12 01:35:59;;;;;;;10.30;6.85;;;;;;;13.83;95.89;101473.91;5034664;28;20030;-67
2023/05/12 01:38:25;;;;;;;9.48;7.30;;;;;;;13.81;96.07;101467.72;5034811;28;20037;-67
2023/05/12 01:40:51;;;;;;;8.25;6.85;;;;;;;13.85;96.08;101468.63;5034500;28;20037;-67
2023/05/12 01:43:16;;;;;;;8.32;6.32;;;;;;;13.85;96.16;101466.84;5034731;28;20033;-67
2023/05/12 01:45:42;;;;;;;9.35;7.22;;;;;;;13.82;96.22;101463.28;5034619;28;20482;-68
2023/05/12 01:48:07;;;;;;;11.27;7.38;;;;;;;13.74;96.64;101463.22;5034478;28;20065;-67
2023/05/12 01:50:33;;;;;;;11.52;7.63;;;;;;;13.69;96.45;101462.28;5034475;28;20045;-67
2023/05/12 01:52:58;;;;;;;7.93;6.78;;;;;;;13.65;97.00;101461.38;5034728;28;20494;-67
2023/05/12 01:55:24;;;;;;;8.88;6.35;;;;;;;13.68;97.32;101463.19;5034552;28;20156;-67
2023/05/12 01:57:49;;;;;;;7.28;5.53;;;;;;;13.69;97.31;101454.31;5034592;28;20097;-67
2023/05/12 02:00:15;;;;;;;9.25;5.68;;;;;;;13.73;97.53;101458.78;5034611;28;20497;-66
2023/05/12 02:02:41;;;;;;;7.05;5.63;;;;;;;13.69;96.73;101454.31;5034667;28;20076;-66
2023/05/12 02:05:08;;;;;;;6.50;5.28;;;;;;;13.75;97.06;101460.59;5034236;28;20441;-66
2023/05/12 02:07:33;;;;;;;7.82;5.63;;;;;;;13.72;96.18;101451.69;5034067;28;20462;-66
2023/05/12 02:09:58;;;;;;;8.60;5.95;;;;;;;13.69;96.19;101449.91;5034001;28;20037;-66
2023/05/12 02:12:24;;;;;;;7.82;5.70;;;;;;;13.66;96.54;101449.91;5034172;28;20022;-66
2023/05/12 02:14:49;;;;;;;6.95;5.70;;;;;;;13.55;96.75;101448.91;5034001;28;20026;-66
2023/05/12 02:17:16;;;;;;;6.78;5.40;;;;;;;13.51;97.28;101450.66;5033310;28;20026;-66
2023/05/12 02:19:41;;;;;;;6.43;5.35;;;;;;;13.55;97.78;101448.91;5034334;28;20033;-66
2023/05/12 02:22:07;;;;;;;7.10;5.35;;;;;;;13.54;97.37;101449.78;5033912;28;20026;-66
2023/05/12 02:24:32;;;;;;;8.00;4.97;;;;;;;13.55;97.47;101443.59;5033913;28;20044;-65
2023/05/12 02:26:57;;;;;;;8.85;5.15;;;;;;;13.53;97.22;101446.25;5034071;28;20037;-66
2023/05/12 02:29:23;;;;;;;6.72;5.05;;;;;;;13.45;97.76;101439.09;5034111;28;20025;-66
2023/05/12 02:31:48;;;;;;;6.15;4.60;;;;;;;13.40;97.55;101432.84;5033749;28;20029;-65
2023/05/12 02:34:13;;;;;;;6.20;4.78;;;;;;;13.38;97.82;101432.84;5033735;28;20076;-65
2023/05/12 02:36:39;;;;;;;5.43;4.47;;;;;;;13.36;98.23;101433.69;5033637;28;20108;-65
2023/05/12 02:39:04;;;;;;;6.30;4.53;;;;;;;13.30;97.91;101433.66;5016095;28;20026;-65
2023/05/12 02:41:29;;;;;;;6.10;4.57;;;;;;;13.27;98.33;101432.75;5033578;28;20041;-65
2023/05/12 02:43:55;;;;;;;6.32;4.40;;;;;;;13.34;98.75;101427.50;5033582;28;20155;-65
2023/05/12 02:46:20;;;;;;;5.80;3.97;;;;;;;13.31;98.20;101433.66;5033271;28;20049;-66
2023/05/12 02:48:46;;;;;;;5.28;4.05;;;;;;;13.27;98.43;101427.44;5033608;28;20501;-65
2023/05/12 02:51:11;;;;;;;5.97;4.22;;;;;;;13.25;98.56;101421.22;5033374;28;20036;-65
2023/05/12 02:53:36;;;;;;;6.80;4.07;;;;;;;13.30;98.96;101425.69;5033353;28;20035;-65
2023/05/12 02:56:02;;;;;;;5.38;3.83;;;;;;;13.21;98.74;101421.16;5033379;28;20030;-65
2023/05/12 02:58:27;;;;;;;4.65;3.30;;;;;;;13.25;99.07;101420.34;5015707;28;20026;-65
2023/05/12 03:00:53;;;;;;;7.03;3.58;;;;;;;13.22;99.23;101417.63;5033353;28;20025;-65
2023/05/12 03:03:18;;;;;;;4.25;3.25;;;;;;;13.22;98.92;101412.31;5033558;28;20026;-65
2023/05/12 03:05:43;;;;;;;6.40;3.58;;;;;;;13.19;99.09;101413.19;5033119;28;20394;-65
2023/05/12 03:08:09;;;;;;;4.90;3.58;;;;;;;13.24;99.22;101408.84;5033457;28;20040;-65
2023/05/12 03:10:34;;;;;;;3.80;3.28;;;;;;;13.31;98.98;101408.88;5032996;28;20025;-65
2023/05/12 03:13:00;;;;;;;5.13;3.35;;;;;;;13.31;98.98;101396.50;5033368;28;20176;-65
2023/05/12 03:15:25;;;;;;;4.45;3.33;;;;;;;13.19;98.84;101406.97;5033133;28;20391;-66
2023/05/12 03:17:50;;;;;;;5.05;3.28;;;;;;;13.21;99.75;101402.56;5033105;28;20029;-65
2023/05/12 03:20:16;;;;;;;4.53;3.47;;;;;;;13.17;99.27;101408.72;5032966;28;20383;-65
2023/05/12 03:22:41;;;;;;;4.70;3.38;;;;;;;13.17;99.71;101401.66;5032939;28;20034;-65
2023/05/12 03:25:09;;;;;;;4.45;3.38;;;;;;;13.22;100.00;101407.91;5032877;28;20376;-65
2023/05/12 03:27:34;;;;;;;4.57;3.35;;;;;;;13.19;99.62;101397.25;5032757;28;20062;-65
2023/05/12 03:30:00;;;;;;;5.55;3.78;;;;;;;13.13;99.69;101397.19;5032851;28;20029;-65
2023/05/12 03:32:27;;;;;;;4.75;3.75;;;;;;;13.13;100.00;101389.22;5033030;28;20026;-65
2023/05/12 03:34:53;;;;;;;5.60;3.63;;;;;;;13.19;99.96;101386.66;5032722;28;20469;-65
2023/05/12 03:37:18;;;;;;;6.05;4.00;;;;;;;13.13;100.00;101385.69;5032940;28;20113;-65
2023/05/12 03:39:43;;;;;;;7.45;4.28;;;;;;;13.17;100.00;101382.19;5032783;28;20037;-65
2023/05/12 03:42:09;;;;;;;7.15;4.63;;;;;;;13.11;99.99;101385.69;5032769;28;20434;-65
2023/05/12 03:44:34;;;;;;;5.97;4.40;;;;;;;13.14;100.00;101375.09;5033011;28;20121;-65
2023/05/12 03:46:59;;;;;;;7.07;4.97;;;;;;;13.12;100.00;101371.53;5032633;28;20047;-65
2023/05/12 03:49:25;;;;;;;6.50;4.43;;;;;;;13.15;100.00;101376.00;5032956;28;20029;-63
2023/05/12 03:51:50;;;;;;;8.07;5.38;;;;;;;13.08;100.00;101374.16;5032903;28;20363;-65
2023/05/12 03:54:16;;;;;;;7.53;5.47;;;;;;;12.96;100.00;101375.81;5032683;28;20493;-65
2023/05/12 03:56:41;;;;;;;8.93;6.00;;;;;;;12.87;100.00;101373.06;5032696;28;20026;-65
2023/05/12 03:59:06;;;;;;;9.30;6.10;;;;;;;12.84;100.00;101377.44;5032598;28;20075;-65
2023/05/12 04:01:32;;;;;;;11.55;6.05;;;;;;;12.84;100.00;101373.03;5032999;28;20042;-65
2023/05/12 04:03:57;;;;;;;9.30;5.65;;;;;;;12.87;100.00;101370.41;5032780;28;20475;-65
2023/05/12 04:06:22;;;;;;;12.35;7.10;;;;;;;12.86;100.00;101373.06;5032686;28;20030;-65
2023/05/12 04:08:48;;;;;;;9.10;6.05;;;;;;;12.90;100.00;101372.22;5032324;28;20029;-65
2023/05/12 04:11:13;;;;;;;11.25;7.40;;;;;;;12.84;100.00;101372.16;5032524;28;20104;-65
2023/05/12 04:13:39;;;;;;;11.10;6.32;;;;;;;12.83;100.00;101376.56;5032698;28;20113;-65
2023/05/12 04:16:04;;;;;;;11.70;7.40;;;;;;;12.78;100.00;101379.19;5032514;28;20017;-65
2023/05/12 04:18:30;;;;;;;14.68;8.13;;;;;;;12.73;100.00;101367.63;5032528;28;20021;-65
2023/05/12 04:20:55;;;;;;;12.15;7.88;;;;;;;12.69;100.00;101378.19;5032478;28;20037;-65
2023/05/12 04:23:21;;;;;;;11.75;8.27;;;;;;;12.71;100.00;101368.47;5032441;28;20117;-65
2023/05/12 04:25:47;;;;;;;14.40;8.30;;;;;;;12.71;100.00;101377.31;5032660;28;20108;-65
2023/05/12 04:28:12;;;;;;;12.90;8.27;;;;;;;12.76;100.00;101380.03;5032394;28;20051;-65
2023/05/12 04:30:39;;;;;;;15.25;9.30;;;;;;;12.73;100.00;101372.94;5032387;28;20506;-65
2023/05/12 04:33:05;;;;;;;20.00;10.07;;;;;;;12.72;100.00;101375.59;5032368;28;20530;-65
2023/05/12 04:35:30;;;;;;;15.98;9.57;;;;;;;12.72;100.00;101363.22;5032420;28;20110;-65
2023/05/12 04:37:56;;;;;;;17.67;10.15;;;;;;;12.71;100.00;101365.81;5014601;28;20026;-65
2023/05/12 04:40:21;;;;;;;16.00;10.70;;;;;;;12.67;100.00;101364.91;5033757;28;20072;-65
2023/05/12 04:42:47;;;;;;;20.20;11.13;;;;;;;12.72;100.00;101372.94;5035761;28;20033;-65
2023/05/12 04:45:12;;;;;;;17.13;10.90;;;;;;;12.68;100.00;101373.78;5035755;28;20029;-65
2023/05/12 04:47:37;;;;;;;20.45;10.85;;;;;;;12.72;100.00;101375.59;5035441;28;20056;-65
2023/05/12 04:50:04;;;;;;;20.17;11.68;;;;;;;12.72;100.00;101378.25;5017854;28;20487;-64
2023/05/12 04:52:30;;;;;;;19.55;12.20;;;;;;;12.66;100.00;101381.69;5035612;28;20029;-65
2023/05/12 04:54:56;;;;;;;22.05;13.80;;;;;;;12.66;100.00;101375.50;5047387;28;20025;-65
2023/05/12 04:57:21;;;;;;;19.48;12.52;;;;;;;12.70;100.00;101377.31;5055438;28;20079;-65
2023/05/12 04:59:47;;;;;;;22.67;13.57;;;;;;;12.75;100.00;101380.91;5055762;28;20025;-65
2023/05/12 05:02:12;;;;;;;22.02;13.32;;;;;;;12.76;100.00;101380.94;5055298;28;20044;-65
2023/05/12 05:04:37;;;;;;;26.35;14.30;;;;;;;12.76;100.00;101383.59;5055319;28;20036;-65
2023/05/12 05:07:03;;;;;;;23.98;13.40;;;;;;;12.83;100.00;101389.81;5055258;28;20090;-66
2023/05/12 05:09:29;;;;;;;25.30;14.70;;;;;;;12.79;100.00;101396.84;5055151;28;20029;-65
2023/05/12 05:11:54;;;;;;;22.83;14.10;;;;;;;12.84;100.00;101396.91;5055177;28;20025;-66
2023/05/12 05:14:20;;;;;;;24.83;14.73;;;;;;;12.89;100.00;101396.94;5055336;28;20382;-66
2023/05/12 05:16:45;;;;;;;23.90;14.70;;;;;;;12.90;100.00;101396.97;5055041;28;20075;-66
2023/05/12 05:19:12;;;;;;;27.77;15.43;;;;;;;12.93;100.00;101401.41;5055001;28;20488;-66
2023/05/12 05:21:37;;;;;;;25.13;15.27;;;;;;;12.92;100.00;101399.63;5035837;28;20034;-65
2023/05/12 05:24:03;;;;;;;26.20;16.10;;;;;;;12.95;100.00;101399.69;5035251;28;20041;-65
2023/05/12 05:26:28;;;;;;;27.30;16.08;;;;;;;12.97;100.00;101413.84;5017158;28;20052;-65
2023/05/12 05:28:54;;;;;;;24.02;14.60;;;;;;;13.00;100.00;101408.56;5034838;28;20029;-65
2023/05/12 05:31:20;;;;;;;27.25;16.75;;;;;;;12.99;100.00;101406.78;5035137;28;20029;-66
2023/05/12 05:33:45;;;;;;;27.55;17.17;;;;;;;13.00;100.00;101401.50;5034785;28;20029;-65
2023/05/12 05:36:11;;;;;;;23.42;15.18;;;;;;;13.07;100.00;101410.41;5034690;28;20039;-65
2023/05/12 05:38:36;;;;;;;25.27;15.88;;;;;;;13.05;100.00;101417.44;5034664;28;20438;-65
2023/05/12 05:41:02;;;;;;;28.20;16.85;;;;;;;13.07;100.00;101415.72;5034564;28;20025;-65
2023/05/12 05:43:28;;;;;;;29.55;17.00;;;;;;;13.12;100.00;101418.41;5034677;28;20033;-65
2023/05/12 05:45:55;;;;;;;26.05;16.40;;;;;;;13.16;100.00;101422.88;5034895;28;20030;-65
2023/05/12 05:48:21;;;;;;;26.40;17.30;;;;;;;13.19;100.00;101430.84;5034439;28;20049;-65
2023/05/12 05:50:47;;;;;;;27.52;16.65;;;;;;;13.26;100.00;101430.97;5034156;28;20037;-65
2023/05/12 05:53:13;;;;;;;31.08;17.13;;;;;;;13.30;100.00;101425.69;5034525;28;20036;-65
2023/05/12 05:55:38;;;;;;;27.27;16.70;;;;;;;13.35;100.00;101435.47;5034518;28;20030;-65
2023/05/12 05:58:04;;;;;;;32.30;16.88;;;;;;;13.40;100.00;101435.50;5034669;28;20423;-65
2023/05/12 06:00:29;;;;;;;29.85;17.95;;;;;;;13.40;100.00;101423.09;5034232;28;20449;-65
2023/05/12 06:02:55;;;;;;;27.45;17.50;;;;;;;13.42;100.00;101442.59;5016544;28;20064;-65
2023/05/12 06:05:20;;;;;;;26.60;17.40;;;;;;;13.46;100.00;101443.53;5034269;28;20513;-65
2023/05/12 06:07:46;;;;;;;28.42;17.88;;;;;;;13.51;100.00;101436.47;5034405;28;20025;-65
2023/05/12 06:10:11;;;;;;;28.17;17.60;;;;;;;13.59;100.00;101441.88;5033992;28;20493;-65
2023/05/12 06:12:36;;;;;;;25.65;17.42;;;;;;;13.64;100.00;101448.09;5034229;28;20057;-65
2023/05/12 06:15:02;;;;;;;25.65;17.08;;;;;;;13.72;100.00;101457.00;5033951;28;20068;-65
2023/05/12 06:17:27;;;;;;;28.10;17.08;;;;;;;13.77;100.00;101464.13;5034001;28;20022;-65
2023/05/12 06:19:52;;;;;;;27.20;18.77;;;;;;;13.80;100.00;101467.72;5034081;28;20116;-65
2023/05/12 06:22:18;;;;;;;30.27;18.65;;;;;;;13.84;100.00;101466.84;5016285;28;20056;-65
2023/05/12 06:24:43;;;;;;;26.23;18.08;;;;;;;13.89;100.00;101473.09;5033846;28;20394;-65
2023/05/12 06:27:09;;;;;;;26.23;18.05;;;;;;;13.93;100.00;101477.53;5033974;28;20021;-65
2023/05/12 06:29:34;;;;;;;28.08;19.25;;;;;;;13.98;100.00;101478.44;5034122;28;20033;-65
2023/05/12 06:31:59;;;;;;;27.77;18.52;;;;;;;14.04;100.00;101491.78;5033992;28;20029;-65
2023/05/12 06:34:25;;;;;;;25.75;17.30;;;;;;;14.11;100.00;101490.94;5033620;28;20053;-65
2023/05/12 06:36:51;;;;;;;26.48;18.05;;;;;;;14.16;100.00;101494.50;5033621;28;20116;-65
2023/05/12 06:39:16;;;;;;;24.88;17.70;;;;;;;14.21;100.00;101491.88;5033429;28;20128;-65
2023/05/12 06:41:42;;;;;;;29.13;17.83;;;;;;;14.25;100.00;101491.91;5033773;28;20037;-65
2023/05/12 06:44:11;;;;;;;24.45;17.17;;;;;;;14.33;100.00;101504.38;5033559;28;20112;-65
2023/05/12 06:46:39;;;;;;;23.25;17.15;;;;;;;14.38;100.00;101497.28;5033232;28;20407;-65
2023/05/12 06:49:05;;;;;;;24.08;17.00;;;;;;;14.40;100.00;101495.56;5033499;28;20494;-65
2023/05/12 06:51:31;;;;;;;23.55;17.58;;;;;;;14.46;100.00;101500.91;5033216;28;20025;-65
2023/05/12 06:53:56;;;;;;;21.25;16.08;;;;;;;14.50;100.00;101503.59;5033566;28;20108;-65
2023/05/12 06:56:22;;;;;;;21.33;16.70;;;;;;;14.58;100.00;101505.44;5033396;28;20022;-65
2023/05/12 06:58:48;;;;;;;19.80;16.48;;;;;;;14.65;100.00;101512.56;5033417;28;20025;-65
2023/05/12 07:01:14;;;;;;;21.38;16.67;;;;;;;14.69;100.00;101501.94;5033245;28;20030;-65
2023/05/12 07:03:39;;;;;;;20.70;15.93;;;;;;;14.73;100.00;101513.47;5032663;28;20021;-72
2023/05/12 07:06:05;;;;;;;23.63;16.20;;;;;;;14.79;100.00;101510.84;5032950;28;20106;-65
2023/05/12 07:08:30;;;;;;;24.52;16.30;;;;;;;14.77;99.90;101518.81;5033357;28;20040;-64
2023/05/12 07:10:58;;;;;;;19.98;14.95;;;;;;;14.76;98.72;101525.00;5032896;28;20119;-65
2023/05/12 07:13:24;;;;;;;22.17;17.20;;;;;;;14.83;99.05;101530.38;5032962;28;20383;-65
2023/05/12 07:15:49;;;;;;;18.45;16.25;;;;;;;14.85;99.66;101524.16;5033078;28;20036;-65
2023/05/12 07:18:15;;;;;;;20.55;15.35;;;;;;;14.89;98.87;101528.59;5033376;28;20037;-65
2023/05/12 07:20:40;;;;;;;17.65;14.38;;;;;;;15.04;99.04;101527.78;5033022;28;20219;-65
2023/05/12 07:23:06;;;;;;;17.13;13.50;;;;;;;15.24;98.52;101522.50;5032902;28;20032;-65
2023/05/12 07:25:31;;;;;;;14.88;11.88;;;;;;;15.35;95.80;101536.75;5032815;28;20386;-65
2023/05/12 07:27:57;;;;;;;14.43;10.82;;;;;;;15.48;94.21;101530.56;5032870;28;20102;-65
2023/05/12 07:30:22;;;;;;;12.93;10.35;;;;;;;15.66;92.18;101529.72;5032894;28;20387;-65
2023/05/12 07:32:48;;;;;;;15.60;9.90;;;;;;;15.81;92.45;101542.19;5032919;28;20052;-65
2023/05/12 07:35:13;;;;;;;10.60;9.20;;;;;;;15.90;90.94;101533.28;5032754;28;20030;-65
2023/05/12 07:37:40;;;;;;;14.63;8.95;;;;;;;16.02;90.18;101526.19;5032759;28;20034;-65
2023/05/12 07:40:06;;;;;;;10.23;9.10;;;;;;;16.22;90.59;101534.13;5032852;28;20501;-65
2023/05/12 07:42:31;;;;;;;10.45;7.95;;;;;;;16.28;87.41;101550.13;5032745;28;20501;-65
2023/05/12 07:44:57;;;;;;;9.43;7.80;;;;;;;16.20;87.11;101537.72;5032715;28;20029;-65
2023/05/12 07:47:22;;;;;;;9.18;8.20;;;;;;;16.14;87.55;101548.38;5032353;28;20037;-65
2023/05/12 07:49:48;;;;;;;9.10;7.47;;;;;;;16.02;86.51;101541.28;5032749;28;20033;-65
2023/05/12 07:52:13;;;;;;;10.52;7.68;;;;;;;15.96;86.51;101552.81;5032557;28;20482;-66
2023/05/12 07:54:38;;;;;;;14.82;7.72;;;;;;;15.91;84.95;101567.94;5032539;28;20021;-65
2023/05/12 07:57:04;;;;;;;9.57;7.05;;;;;;;15.85;86.65;101554.63;5032649;28;20026;-65
2023/05/12 07:59:29;;;;;;;8.25;6.82;;;;;;;15.83;85.35;101551.03;5032690;28;20033;-65
2023/05/12 08:01:55;;;;;;;10.05;6.40;;;;;;;16.05;84.43;101545.72;5032649;28;20030;-65
2023/05/12 08:04:21;;;;;;;9.95;6.28;;;;;;;16.38;84.78;101559.00;5032652;28;20643;-65
2023/05/12 08:06:46;;;;;;;7.40;5.95;;;;;;;16.61;84.58;101561.63;5032524;28;20064;-65
2023/05/12 08:09:12;;;;;;;8.68;6.97;;;;;;;16.74;82.61;101568.75;5032367;28;20044;-65
2023/05/12 08:11:37;;;;;;;10.52;6.85;;;;;;;16.92;82.11;101558.91;5032485;28;20030;-66
2023/05/12 08:14:03;;;;;;;8.50;7.18;;;;;;;16.94;80.49;101568.66;5033766;28;20032;-66
2023/05/12 08:16:28;;;;;;;9.43;6.40;;;;;;;16.92;82.67;101564.25;5036491;28;20029;-66
2023/05/12 08:18:53;;;;;;;8.73;6.82;;;;;;;16.99;82.98;101569.53;5036240;28;20052;-66
2023/05/12 08:21:19;;;;;;;11.35;6.30;;;;;;;17.22;81.33;101565.88;5036401;28;20033;-66
2023/05/12 08:23:44;;;;;;;8.68;6.07;;;;;;;17.44;78.35;101562.19;5036537;28;20402;-66
2023/05/12 08:26:10;;;;;;;7.07;5.50;;;;;;;17.54;78.08;101573.69;5036182;28;20021;-66
2023/05/12 08:28:35;;;;;;;8.32;5.72;;;;;;;17.53;78.39;101571.94;5018334;28;20022;-66
2023/05/12 08:31:01;;;;;;;6.47;5.47;;;;;;;17.52;77.48;101572.84;5036186;28;20037;-66
2023/05/12 08:33:27;;;;;;;6.50;5.15;;;;;;;17.47;77.11;101574.63;5036040;28;20108;-66
2023/05/12 08:35:52;;;;;;;7.45;4.90;;;;;;;17.61;78.21;101569.22;5018480;28;20461;-66
2023/05/12 08:38:18;;;;;;;5.32;4.43;;;;;;;17.93;76.62;101574.34;5036697;28;20024;-66
2023/05/12 08:41:08;;;;;;;6.10;4.47;;;;;;;18.15;73.44;101594.66;5035879;28;20486;-66
2023/05/12 08:43:41;;;;;;;8.90;4.60;;;;;;;18.02;72.70;101582.28;5018044;28;20398;-67
2023/05/12 08:46:07;;;;;;;8.07;4.97;;;;;;;17.86;72.92;101568.19;5051650;28;20065;-66
2023/05/12 08:48:34;;;;;;;9.77;4.38;;;;;;;17.94;76.17;101573.44;5055397;28;20045;-66
2023/05/12 08:51:01;;;;;;;15.85;4.93;;;;;;;17.96;73.98;101585.03;5055624;28;20037;-66
2023/05/12 08:53:28;;;;;;;6.00;4.13;;;;;;;18.17;72.46;101592.88;5055472;28;20075;-66
2023/05/12 08:55:55;;;;;;;5.97;4.15;;;;;;;18.22;69.96;101593.72;5055273;28;20025;-66
2023/05/12 08:58:21;;;;;;;4.88;4.25;;;;;;;18.30;71.84;101588.31;5055387;28;20037;-66
2023/05/12 09:00:46;;;;;;;6.63;3.95;;;;;;;18.50;70.15;101580.09;5055446;28;20071;-67
2023/05/12 09:03:13;;;;;;;6.00;4.00;;;;;;;18.64;70.53;101582.63;5055352;28;20462;-68
2023/05/12 09:05:39;;;;;;;6.45;3.78;;;;;;;18.82;70.89;101587.78;5055388;28;20033;-67
2023/05/12 09:08:05;;;;;;;7.55;4.03;;;;;;;18.92;67.84;101594.81;5055333;28;20032;-67
2023/05/12 09:10:31;;;;;;;5.35;4.07;;;;;;;19.06;68.21;101585.72;5055093;28;20032;-67
2023/05/12 09:13:22;;;;;;;7.03;3.90;;;;;;;19.16;67.81;101595.44;5055168;28;20029;-67
2023/05/12 09:15:48;;;;;;;7.07;3.70;;;;;;;19.28;66.74;101592.59;5055098;28;20070;-67
2023/05/12 09:18:13;;;;;;;6.07;3.70;;;;;;;19.40;66.55;101591.50;5055367;28;20029;-67
2023/05/12 09:20:39;;;;;;;5.22;3.63;;;;;;;19.55;66.31;101593.09;5037361;28;20175;-68
2023/05/12 09:23:15;;;;;;;4.57;3.53;;;;;;;19.64;65.12;101607.28;5055132;28;20021;-67
2023/05/12 09:25:41;;;;;;;6.05;3.63;;;;;;;19.56;63.90;101593.06;5054432;28;20162;-67
2023/05/12 09:28:07;;;;;;;4.47;3.25;;;;;;;19.53;63.44;101601.19;5054941;28;20125;-68
2023/05/12 09:30:36;;;;;;;4.07;3.05;;;;;;;19.81;62.74;101593.63;5054822;28;20025;-68
2023/05/12 09:33:12;;;;;;;4.30;3.28;;;;;;;20.11;62.27;101588.69;5055100;28;20048;-68
2023/05/12 09:35:42;;;;;;;5.03;3.15;;;;;;;20.40;61.79;101590.88;5054587;28;20363;-68
2023/05/12 09:38:09;;;;;;;5.43;3.70;;;;;;;20.60;60.14;101596.81;5054546;28;20060;-68
2023/05/12 09:40:35;;;;;;;7.00;3.70;;;;;;;20.80;57.74;101596.41;5054498;28;20048;-67
2023/05/12 09:43:02;;;;;;;5.97;3.30;;;;;;;20.84;57.02;101592.72;5054897;28;20021;-68
2023/05/12 09:45:27;;;;;;;5.07;3.30;;;;;;;21.00;59.93;101599.56;5054713;28;20386;-67
2023/05/12 09:47:53;;;;;;;4.60;3.08;;;;;;;21.21;57.12;101600.94;5054292;28;20049;-68
2023/05/12 09:50:18;;;;;;;4.63;3.05;;;;;;;21.38;56.29;101597.03;5054388;28;20111;-67
2023/05/12 09:52:43;;;;;;;3.78;3.00;;;;;;;21.10;54.45;101610.13;5054442;28;20025;-68
2023/05/12 09:55:11;;;;;;;4.47;3.20;;;;;;;20.85;55.53;101612.44;5054186;28;20549;-68
2023/05/12 09:57:44;;;;;;;6.82;3.10;;;;;;;20.69;58.05;101614.53;5054297;28;20386;-67
2023/05/12 10:00:12;;;;;;;4.53;3.10;;;;;;;20.66;58.31;101610.09;5054321;28;20062;-67
2023/05/12 10:02:41;;;;;;;4.82;3.38;;;;;;;20.43;57.32;101612.31;5054146;28;20065;-67
2023/05/12 10:05:13;;;;;;;5.65;3.22;;;;;;;20.28;59.03;101610.75;5054352;28;20075;-68
2023/05/12 10:07:39;;;;;;;7.85;3.45;;;;;;;20.04;58.35;101611.16;5053996;28;20036;-67
2023/05/12 10:10:06;;;;;;;6.63;3.58;;;;;;;19.99;59.66;101605.88;5053897;28;20033;-69
2023/05/12 10:12:34;;;;;;;6.15;3.40;;;;;;;19.91;57.47;101616.75;5036306;28;20033;-68
2023/05/12 10:15:01;;;;;;;4.72;3.38;;;;;;;19.95;57.30;101615.75;5054178;28;20103;-67
2023/05/12 10:17:27;;;;;;;4.97;3.67;;;;;;;20.10;58.88;101611.94;5053930;28;20021;-67
2023/05/12 10:19:53;;;;;;;5.05;3.25;;;;;;;20.07;58.79;101609.31;5053807;28;20025;-67
2023/05/12 10:22:20;;;;;;;5.45;3.65;;;;;;;20.01;57.39;101626.41;5053897;28;20021;-67
2023/05/12 10:24:47;;;;;;;7.78;3.17;;;;;;;19.97;57.60;101611.28;5053702;28;20459;-71
2023/05/12 10:27:14;;;;;;;5.38;3.35;;;;;;;19.84;58.20;101612.38;5053883;28;20045;-71
2023/05/12 10:29:40;;;;;;;5.10;3.03;;;;;;;19.95;59.05;101618.44;5053721;28;20031;-71
2023/05/12 10:32:05;;;;;;;6.88;3.30;;;;;;;20.27;58.87;101614.34;5053669;28;20033;-71
2023/05/12 10:34:39;;;;;;;5.65;3.10;;;;;;;20.62;57.27;101610.19;5053830;28;20029;-71
2023/05/12 10:37:09;;;;;;;5.00;3.03;;;;;;;20.67;57.93;101616.34;5052955;28;20029;-70
2023/05/12 10:39:36;;;;;;;9.25;3.17;;;;;;;20.68;57.05;101616.31;5035479;28;20036;-69
2023/05/12 10:42:08;;;;;;;5.85;3.40;;;;;;;20.76;56.91;101613.50;5053511;28;20053;-70
2023/05/12 10:44:35;;;;;;;5.50;3.63;;;;;;;20.89;57.03;101614.13;5053474;28;20131;-70
2023/05/12 10:47:00;;;;;;;5.80;3.40;;;;;;;21.02;56.13;101624.59;5053150;28;20502;-66
2023/05/12 10:49:35;;;;;;;7.93;3.60;;;;;;;21.20;54.33;101612.63;5053316;28;20025;-67
2023/05/12 10:52:00;;;;;;;6.22;3.22;;;;;;;21.05;53.89;101629.03;5053563;28;20033;-67
2023/05/12 10:54:26;;;;;;;4.55;3.47;;;;;;;20.85;55.00;101624.06;5053676;28;20028;-67
2023/05/12 10:56:57;;;;;;;4.22;3.13;;;;;;;20.77;55.79;101631.41;5054671;28;20056;-67
2023/05/12 10:59:25;;;;;;;7.32;3.38;;;;;;;20.69;57.69;101628.84;5054894;28;20025;-67
2023/05/12 11:02:02;;;;;;;4.68;3.45;;;;;;;20.83;59.24;101636.63;5053444;28;20383;-67
2023/05/12 11:04:45;;;;;;;7.03;3.97;;;;;;;20.84;58.27;101619.59;5053166;28;20017;-66
2023/05/12 11:07:13;;;;;;;6.75;3.67;;;;;;;20.74;55.94;101640.38;5035288;28;20028;-66
2023/05/12 11:09:41;;;;;;;5.55;3.58;;;;;;;20.54;57.09;101629.13;5053254;28;20091;-67
2023/05/12 11:12:07;;;;;;;5.97;3.80;;;;;;;20.32;55.92;101647.38;5053364;28;20032;-66